Tropical Cyclones
[Index]
Main Index Home Page Stock Weather Photos Extreme Storms Discussion Storm News and Storm Chasing Reports Tropical Cyclones / Hurricanes / Typhoons Weather Data and Links Wild Fires / Bushfires Weather Observation Techniques Weather Picture Catalogue Tornado Pictures and Reports Stock Video Footage and DVDs for sale
Season 2005-2006 Tropical Cyclone LARRY Track Map
Season 2005-2006 Summaries: [BoM-AU] [JTWC-AU] [JTWC-SIO] [JTWC-SPAC] [JTWC-SH]
<<- Previous TC | JTWC 2005-2006 Season | Next TC ->>

click for intensity scale information  Lat/long Grid: Show Hide

 Date Labels: Show Hide

Joint Typhoon Warning Centre Cyclone Data

Name: LARRY

16 Mar 2006 12:00 UTC to 21 Mar 2006 06:00 UTC

    date/time    lat    long     hPa   cat  kts
2006-03-16 12   12.9   159.4    1007         20          
2006-03-16 18   13.6   159.6    1002         25          
2006-03-17 00   14.2   160.0    1002         25          
2006-03-17 06   15.2   160.0    1000         30          
2006-03-17 12   15.8   158.9    1000         30          
2006-03-17 18   16.5   157.9    1000         30          
2006-03-18 00   17.0   156.8     997         35          
2006-03-18 06   17.2   155.6     991    1    45          
2006-03-18 12   17.4   154.3     978    2    60          
2006-03-18 12   17.4   154.3     978    2    60          
2006-03-18 18   17.6   152.8     976    2    65          
2006-03-18 18   17.6   152.8     976    2    65          
2006-03-19 00   17.7   151.2     976    2    65          
2006-03-19 00   17.7   151.2     976    2    65          
2006-03-19 06   17.7   149.8     967    3    75          
2006-03-19 06   17.7   149.8     967    3    75          
2006-03-19 06   17.7   149.8     967    3    75          
2006-03-19 12   17.6   148.3     949    3    95          
2006-03-19 12   17.6   148.3     949    3    95          
2006-03-19 12   17.6   148.3     949    3    95          
2006-03-19 18   17.5   146.8     937    4   115          
2006-03-19 18   17.5   146.8     937    4   115          
2006-03-19 18   17.5   146.8     937    4   115          
2006-03-20 00   17.6   145.4     944    4   100          
2006-03-20 00   17.6   145.4     944    4   100          
2006-03-20 00   17.6   145.4     944    4   100          
2006-03-20 06   17.9   143.8     967    3    75          
2006-03-20 06   17.9   143.8     967    3    75          
2006-03-20 06   17.9   143.8     967    3    75          
2006-03-20 12   18.5   142.0     994    1    40          
2006-03-20 18   19.1   140.7    1002         25          
2006-03-21 00   19.6   139.6    1004         20          
2006-03-21 06   19.8   138.8    1004         20          
Winds are 1-min average.

Tropical cyclone tracks developed by Michael Bath using data from the Joint Typhoon Warning Centre Best Tracks and Google Maps.


[Australian Severe Weather index] [Copyright Notice] [Email Contacts] [Search This Site] [Privacy Policy]
Document: tropical_cyclone_larry.htm Updated: 28 June 2017